Decoded Metar for KOGD (OGDEN in UT, USA) (IATA:OGD) | Meteo·Mobile Aviation Weather
aviador You're here:

KOGD Decoded Metar

OGDEN in UT, USA
Report Time2019-01-20 09:53:00
UTC Time2019-01-20 10:41:00
Flight Rules vfr VFR
Wind190° at 06 kt
W.Decomp.*RWY 16: 5.8 kt HW 1.7 kt RCW
RWY 21: 5.0 kt HW 3.4 kt LCW
RWY 25: 1.7 kt HW 5.8 kt LCW
W.Rank190° ranks 4
Current wind is below 190° avg. (6.7)
Visibility9999 m
Phenomena:N/A
Clouds:Few 050 Hf
Expected CloudBase > 800 ft AGL from Temp-Dew spread
CeilingNone
Temp01°C (ISA -5)
Dew Point-1°C (87% RH)
AAT-3.3°C
QNH1023 hPa
Density Alt3,566 ft
Elevation4,439 ft
Report Wrong Elevation
Raw Report
KOGD 200953Z AUTO 19006KT 10SM FEW050 01/M01 A3021 RMK AO2 SLP232
T00111011=

Extra information for KOGD:More info

Metar Taf Metar & Taf Last 4 Metars F.Rules Stats Wind Profile Meteogram Temp Stats Airport Information Weather charts Add Link Nearby VenuesMetar ALERT Operation Metar Decoded Social comments

AIRNAV info for KOGD